Time;durP1;ratioP1;P1;durP2;ratioP2;P2;SDS_P1;SDS_P2;PMS_P1;PMS_P2;Temp;Humidity;BMP_temperature;BMP_pressure;BME280_temperature;BME280_humidity;BME280_pressure;Samples;Min_cycle;Max_cycle;Signal;HPM_P1;HPM_P2
2022/04/02 00:00:28;;;;;;;0.80;0.50;;;19.30;94.90;;;;;;5032096;28;20381;-78
2022/04/02 00:02:56;;;;;;;1.80;0.60;;;19.40;96.00;;;;;;5030962;28;20884;-79
2022/04/02 00:05:27;;;;;;;3.63;0.60;;;19.30;95.40;;;;;;5030109;28;20374;-79
2022/04/02 00:07:54;;;;;;;2.88;1.20;;;19.60;95.60;;;;;;5030578;28;20414;-79
2022/04/02 00:10:21;;;;;;;1.90;0.87;;;19.90;94.40;;;;;;5030174;28;20378;-78
2022/04/02 00:12:48;;;;;;;1.90;0.60;;;20.20;94.10;;;;;;5030109;28;20460;-83
2022/04/02 00:15:15;;;;;;;2.83;0.90;;;20.10;93.50;;;;;;5029831;28;20453;-77
2022/04/02 00:17:42;;;;;;;1.90;1.80;;;20.10;94.40;;;;;;5029990;28;20865;-79
2022/04/02 00:20:10;;;;;;;3.75;2.47;;;20.20;93.70;;;;;;5029728;28;20405;-83
2022/04/02 00:22:37;;;;;;;10.75;7.53;;;20.00;92.20;;;;;;5029825;28;20377;-82
2022/04/02 00:25:04;;;;;;;15.93;13.38;;;20.00;93.90;;;;;;5029826;28;20386;-77
2022/04/02 00:27:35;;;;;;;7.03;4.30;;;20.20;92.00;;;;;;5029536;28;20422;-78
2022/04/02 00:30:02;;;;;;;3.13;2.20;;;19.90;92.40;;;;;;5029515;28;20420;-82
2022/04/02 00:32:29;;;;;;;1.73;0.70;;;19.80;93.00;;;;;;5029579;28;20385;-81
2022/04/02 00:34:56;;;;;;;2.97;1.48;;;19.70;93.10;;;;;;5029794;28;20378;-83
2022/04/02 00:37:23;;;;;;;1.10;0.40;;;19.80;93.90;;;;;;5030065;28;20404;-82
2022/04/02 00:39:50;;;;;;;1.10;0.40;;;20.40;93.60;;;;;;5030134;28;20436;-84
2022/04/02 00:42:18;;;;;;;0.60;0.40;;;20.90;91.40;;;;;;4995639;28;20475;-81
2022/04/02 00:44:45;;;;;;;2.17;0.40;;;21.40;89.70;;;;;;5029653;28;20402;-82
2022/04/02 00:47:12;;;;;;;2.13;0.53;;;21.20;89.40;;;;;;5030735;28;20476;-81
2022/04/02 00:49:39;;;;;;;3.08;2.20;;;20.50;89.10;;;;;;5029876;28;20748;-79
2022/04/02 00:52:06;;;;;;;1.42;0.60;;;20.30;91.60;;;;;;5030064;28;20381;-86
2022/04/02 00:54:34;;;;;;;9.13;6.97;;;20.50;91.30;;;;;;5029619;28;20496;-82
2022/04/02 00:57:01;;;;;;;0.90;0.40;;;20.70;91.00;;;;;;5030506;28;20384;-83
2022/04/02 00:59:28;;;;;;;1.40;0.57;;;21.10;90.30;;;;;;5030240;28;20412;-81
2022/04/02 01:01:56;;;;;;;1.38;0.38;;;21.30;86.80;;;;;;5030152;28;20370;-86
2022/04/02 01:04:23;;;;;;;1.42;0.43;;;20.90;88.00;;;;;;5012756;28;20787;-82
2022/04/02 01:06:51;;;;;;;0.30;0.30;;;20.80;89.00;;;;;;5034109;28;20377;-82
2022/04/02 01:09:18;;;;;;;3.97;0.47;;;21.10;87.10;;;;;;5031944;28;20389;-83
2022/04/02 01:11:48;;;;;;;2.33;1.50;;;21.90;84.30;;;;;;5029708;28;20464;-85
2022/04/02 01:14:15;;;;;;;4.97;4.10;;;21.80;83.40;;;;;;5029557;28;20452;-84
2022/04/02 01:16:42;;;;;;;3.38;1.88;;;21.60;84.70;;;;;;5029970;28;20398;-85
2022/04/02 01:19:10;;;;;;;4.35;3.13;;;21.30;84.60;;;;;;5029473;28;20410;-85
2022/04/02 01:21:38;;;;;;;1.52;0.40;;;21.60;83.80;;;;;;5029226;28;20381;-83
2022/04/02 01:24:05;;;;;;;1.00;0.50;;;21.40;84.10;;;;;;5029282;28;20464;-85
2022/04/02 01:26:32;;;;;;;0.45;0.30;;;21.30;82.80;;;;;;5030159;28;20377;-86
2022/04/02 01:29:00;;;;;;;1.90;0.50;;;21.00;85.00;;;;;;5030167;28;20378;-82
2022/04/02 01:31:28;;;;;;;0.57;0.35;;;21.10;84.40;;;;;;5030241;28;20381;-85
2022/04/02 01:33:55;;;;;;;0.83;0.83;;;21.00;84.80;;;;;;5030848;28;20463;-82
2022/04/02 01:36:23;;;;;;;1.10;0.30;;;21.10;84.10;;;;;;5032550;28;20379;-84
2022/04/02 01:38:50;;;;;;;0.60;0.25;;;21.50;83.00;;;;;;5039904;28;20389;-80
2022/04/02 01:41:18;;;;;;;0.52;0.30;;;21.70;82.70;;;;;;5042359;28;20377;-83
2022/04/02 01:43:46;;;;;;;4.93;3.80;;;21.50;82.40;;;;;;5042988;28;20401;-80
2022/04/02 01:46:13;;;;;;;4.10;3.70;;;21.30;82.90;;;;;;5040127;28;20409;-79
2022/04/02 01:48:40;;;;;;;2.80;2.30;;;21.00;82.70;;;;;;5044951;28;20717;-79
2022/04/02 01:51:07;;;;;;;3.37;1.93;;;21.00;85.20;;;;;;5047882;28;20395;-81
2022/04/02 01:53:35;;;;;;;0.25;0.20;;;20.90;84.60;;;;;;5048412;28;20374;-80
2022/04/02 01:56:02;;;;;;;1.48;1.17;;;20.60;86.20;;;;;;5049252;28;20449;-81
2022/04/02 01:58:30;;;;;;;0.75;0.65;;;20.80;87.30;;;;;;5048121;28;20753;-85
2022/04/02 02:00:57;;;;;;;1.83;1.60;;;20.70;87.40;;;;;;5038055;28;20388;-86
2022/04/02 02:03:24;;;;;;;0.88;0.40;;;20.70;85.40;;;;;;5029665;28;20424;-89
2022/04/02 02:05:53;;;;;;;2.22;0.70;;;20.60;87.20;;;;;;5029140;28;20386;-85
2022/04/02 02:08:20;;;;;;;1.52;1.35;;;20.70;87.70;;;;;;5028963;28;20387;-86
2022/04/02 02:10:48;;;;;;;0.40;0.30;;;20.70;88.40;;;;;;5029313;28;20484;-80
2022/04/02 02:13:15;;;;;;;1.92;0.50;;;21.20;86.00;;;;;;5028816;28;20889;-84
2022/04/02 02:15:42;;;;;;;1.33;0.88;;;21.90;84.00;;;;;;5028769;28;20464;-85
2022/04/02 02:18:10;;;;;;;1.00;0.40;;;21.80;81.50;;;;;;5028743;28;20374;-79
2022/04/02 02:20:36;;;;;;;0.87;0.30;;;21.60;84.10;;;;;;5028641;28;20417;-81
2022/04/02 02:23:03;;;;;;;1.27;0.30;;;21.50;85.10;;;;;;5028838;28;20462;-85
2022/04/02 02:25:30;;;;;;;1.30;0.30;;;21.70;83.60;;;;;;5010651;28;20750;-86
2022/04/02 02:27:57;;;;;;;0.40;0.20;;;21.90;82.80;;;;;;5010830;28;20389;-78
2022/04/02 02:30:24;;;;;;;0.22;0.20;;;21.80;82.50;;;;;;5028417;28;20395;-82
2022/04/02 02:35:49;;;;;;;1.27;0.15;;;21.80;80.70;;;;;;5029072;28;20381;-81
2022/04/02 02:35:50;;;;;;;0.47;0.32;;;21.90;81.60;;;;;;5032252;28;20752;-86
2022/04/02 02:38:22;;;;;;;0.47;0.30;;;22.00;80.90;;;;;;5032277;28;20392;-82
2022/04/02 02:40:51;;;;;;;1.67;0.47;;;22.40;81.40;;;;;;5032686;28;20868;-87
2022/04/02 02:43:19;;;;;;;0.85;0.30;;;23.00;78.90;;;;;;5034588;28;20753;-78
2022/04/02 02:45:46;;;;;;;4.60;1.20;;;23.20;77.30;;;;;;5032670;28;20409;-85
2022/04/02 02:48:13;;;;;;;3.88;1.55;;;23.20;76.50;;;;;;5031967;28;20951;-83
2022/04/02 02:50:42;;;;;;;5.30;2.08;;;22.90;78.70;;;;;;5032655;28;20403;-81
2022/04/02 02:53:10;;;;;;;1.50;1.40;;;22.50;76.20;;;;;;5032850;28;20393;-80
2022/04/02 02:55:38;;;;;;;2.53;1.73;;;22.70;79.00;;;;;;5030266;28;20444;-86
2022/04/02 02:58:05;;;;;;;2.17;1.80;;;23.20;74.70;;;;;;5032191;28;20381;-77
2022/04/02 03:00:32;;;;;;;0.55;0.30;;;23.40;75.40;;;;;;5031713;28;20392;-79
2022/04/02 03:02:59;;;;;;;2.30;0.75;;;24.00;74.60;;;;;;5032006;28;20452;-88
2022/04/02 03:05:26;;;;;;;5.10;2.10;;;23.60;73.00;;;;;;5032313;28;20386;-82
2022/04/02 03:07:53;;;;;;;3.33;1.95;;;23.00;76.20;;;;;;5032408;28;20370;-83
2022/04/02 03:10:26;;;;;;;3.28;1.00;;;22.40;75.40;;;;;;5034666;28;20719;-78
2022/04/02 03:12:58;;;;;;;2.20;1.35;;;22.20;77.90;;;;;;5038976;28;20519;-78
2022/04/02 03:15:25;;;;;;;1.63;1.45;;;21.90;78.70;;;;;;5037571;28;20373;-81
2022/04/02 03:17:54;;;;;;;1.50;1.35;;;21.80;79.30;;;;;;5031673;28;20376;-83
2022/04/02 03:20:21;;;;;;;1.23;1.13;;;21.80;78.70;;;;;;5031651;28;20389;-79
2022/04/02 03:22:51;;;;;;;0.77;0.60;;;22.20;78.40;;;;;;5031791;28;20906;-78
2022/04/02 03:25:21;;;;;;;1.70;1.30;;;22.10;78.30;;;;;;5014254;28;20397;-83
2022/04/02 03:27:48;;;;;;;1.52;0.77;;;22.20;76.00;;;;;;5032141;28;20377;-89
2022/04/02 03:30:20;;;;;;;0.73;0.40;;;21.90;79.30;;;;;;5036564;28;20401;-81
2022/04/02 03:32:48;;;;;;;1.42;1.10;;;21.90;79.30;;;;;;5038686;28;20381;-87
2022/04/02 03:35:15;;;;;;;1.33;1.23;;;22.00;82.10;;;;;;5033403;28;20399;-83
2022/04/02 03:37:45;;;;;;;0.60;0.40;;;21.90;79.50;;;;;;5032097;28;20412;-90
2022/04/02 03:40:16;;;;;;;2.10;1.30;;;22.10;79.30;;;;;;5031362;28;20401;-87
2022/04/02 03:42:44;;;;;;;0.43;0.43;;;22.10;78.80;;;;;;5031709;28;20361;-85
2022/04/02 03:45:14;;;;;;;1.55;1.02;;;22.00;75.90;;;;;;5030863;28;20428;-81
2022/04/02 03:47:41;;;;;;;0.60;0.50;;;22.00;77.20;;;;;;5031557;28;20865;-81
2022/04/02 03:50:09;;;;;;;5.30;0.98;;;22.40;78.70;;;;;;5031567;28;20381;-84
2022/04/02 03:52:36;;;;;;;0.50;0.30;;;23.00;73.70;;;;;;5013578;28;20435;-79
2022/04/02 03:55:05;;;;;;;0.40;0.30;;;23.20;73.30;;;;;;5031719;28;20378;-90
2022/04/02 03:57:34;;;;;;;1.13;0.90;;;23.20;72.80;;;;;;5031321;28;20388;-89
2022/04/02 04:00:01;;;;;;;1.00;0.60;;;23.00;73.90;;;;;;5032666;28;20411;-84
2022/04/02 04:02:28;;;;;;;1.17;1.08;;;23.00;75.10;;;;;;5031808;28;20373;-93
2022/04/02 04:04:55;;;;;;;0.60;0.20;;;22.70;73.30;;;;;;5031560;28;20392;-93
2022/04/02 04:07:23;;;;;;;3.15;0.95;;;22.60;74.30;;;;;;5031145;28;20370;-90
2022/04/02 04:09:50;;;;;;;11.30;7.93;;;22.50;76.30;;;;;;5030778;28;20381;-85
2022/04/02 04:12:17;;;;;;;0.88;0.60;;;22.90;74.70;;;;;;5030494;28;20378;-78
2022/04/02 04:14:45;;;;;;;0.30;0.28;;;23.10;73.80;;;;;;5028952;28;20481;-90
2022/04/02 04:17:17;;;;;;;1.10;0.43;;;24.40;72.10;;;;;;5030250;28;20385;-86
2022/04/02 04:19:45;;;;;;;5.22;4.38;;;24.10;69.70;;;;;;5030466;28;20936;-87
2022/04/02 04:22:12;;;;;;;6.15;5.45;;;23.50;72.40;;;;;;5030839;28;20367;-81
2022/04/02 04:24:39;;;;;;;1.60;1.50;;;22.90;73.40;;;;;;5030372;28;20408;-87
2022/04/02 04:27:07;;;;;;;0.30;0.30;;;22.50;74.90;;;;;;5031160;28;20370;-88
2022/04/02 04:29:34;;;;;;;0.45;0.30;;;22.50;76.10;;;;;;5028950;28;20404;-78
2022/04/02 04:32:01;;;;;;;0.83;0.60;;;22.70;75.90;;;;;;5030075;28;20381;-88
2022/04/02 04:34:28;;;;;;;0.95;0.82;;;22.80;75.70;;;;;;5030023;28;20378;-83
2022/04/02 04:36:55;;;;;;;0.93;0.50;;;22.30;75.00;;;;;;5030189;28;20419;-82
2022/04/02 04:39:22;;;;;;;0.60;0.50;;;22.50;75.10;;;;;;5030048;28;20941;-77
2022/04/02 04:41:49;;;;;;;0.20;0.20;;;23.00;73.70;;;;;;5029935;28;20769;-87
2022/04/02 04:44:16;;;;;;;1.90;1.80;;;23.60;73.70;;;;;;5029349;28;20402;-79
2022/04/02 04:46:43;;;;;;;0.57;0.57;;;23.40;72.90;;;;;;5029579;28;20376;-89
2022/04/02 04:49:10;;;;;;;0.98;0.90;;;23.00;72.60;;;;;;5029568;28;20846;-86
2022/04/02 04:51:37;;;;;;;4.63;2.40;;;22.90;72.90;;;;;;5029344;28;20417;-87
2022/04/02 04:54:04;;;;;;;1.27;0.68;;;22.90;74.00;;;;;;5029679;28;20410;-84
2022/04/02 04:56:31;;;;;;;0.87;0.80;;;22.60;74.30;;;;;;5031190;28;20370;-81
2022/04/02 04:58:58;;;;;;;1.15;1.00;;;22.50;75.30;;;;;;5035605;28;20402;-85
2022/04/02 05:01:25;;;;;;;6.15;3.88;;;22.60;75.60;;;;;;5029459;28;20416;-86
2022/04/02 05:03:52;;;;;;;5.22;4.75;;;22.50;74.60;;;;;;5029212;28;20741;-79
2022/04/02 05:06:19;;;;;;;5.93;4.80;;;22.50;74.90;;;;;;5029318;28;20731;-85
2022/04/02 05:08:46;;;;;;;6.17;5.57;;;22.80;73.50;;;;;;5029162;28;20397;-81
2022/04/02 05:11:13;;;;;;;1.45;0.60;;;22.70;72.60;;;;;;5029418;28;20459;-79
2022/04/02 05:13:41;;;;;;;0.98;0.55;;;22.50;74.60;;;;;;5029333;28;20385;-83
2022/04/02 05:16:08;;;;;;;1.35;1.15;;;22.30;74.90;;;;;;5029629;28;20796;-84
2022/04/02 05:18:36;;;;;;;1.63;1.17;;;22.50;74.30;;;;;;5029675;28;20403;-82
2022/04/02 05:21:02;;;;;;;0.65;0.30;;;22.40;74.60;;;;;;5028905;28;20378;-76
2022/04/02 05:23:30;;;;;;;0.60;0.30;;;22.40;76.30;;;;;;5029168;28;20401;-85
2022/04/02 05:25:58;;;;;;;0.73;0.30;;;22.20;75.80;;;;;;5029514;28;20385;-83
2022/04/02 05:28:25;;;;;;;1.15;0.98;;;22.20;75.40;;;;;;5029291;28;20922;-84
2022/04/02 05:30:52;;;;;;;1.10;0.63;;;22.30;74.70;;;;;;5029381;28;20389;-87
2022/04/02 05:33:19;;;;;;;0.68;0.30;;;22.40;74.30;;;;;;5029664;28;20384;-79
2022/04/02 05:35:46;;;;;;;0.40;0.30;;;22.50;75.10;;;;;;5036082;28;20378;-79
2022/04/02 05:38:14;;;;;;;0.68;0.60;;;22.60;74.80;;;;;;5034214;28;20388;-83
2022/04/02 05:40:41;;;;;;;1.75;0.70;;;22.80;73.60;;;;;;5032516;28;20443;-84
2022/04/02 05:43:08;;;;;;;1.88;0.70;;;23.00;75.00;;;;;;5012832;28;20397;-80
2022/04/02 05:45:35;;;;;;;1.30;0.70;;;23.10;73.90;;;;;;5028954;28;20390;-84
2022/04/02 05:48:02;;;;;;;1.75;0.82;;;23.20;73.40;;;;;;5029252;28;20369;-86
2022/04/02 05:50:30;;;;;;;0.80;0.40;;;22.80;72.20;;;;;;5029383;28;20445;-83
2022/04/02 05:53:01;;;;;;;1.53;1.07;;;22.90;72.90;;;;;;5029632;28;20401;-86
2022/04/02 05:55:28;;;;;;;1.92;0.68;;;23.20;72.70;;;;;;5028832;28;20375;-88
2022/04/02 05:57:55;;;;;;;2.50;1.48;;;23.20;71.90;;;;;;5028813;28;20377;-78
2022/04/02 06:00:22;;;;;;;1.10;0.75;;;22.80;72.30;;;;;;5028635;28;20397;-85
2022/04/02 06:02:50;;;;;;;1.55;1.02;;;22.20;73.50;;;;;;5028541;28;20456;-80
2022/04/02 06:05:17;;;;;;;0.60;0.52;;;22.20;74.50;;;;;;5028790;28;20427;-85
2022/04/02 06:07:44;;;;;;;0.95;0.70;;;22.10;74.20;;;;;;5029752;28;20385;-80
2022/04/02 06:10:11;;;;;;;0.88;0.50;;;22.00;75.20;;;;;;5032568;28;20407;-81
2022/04/02 06:12:39;;;;;;;0.50;0.30;;;21.80;75.40;;;;;;5032598;28;20386;-86
2022/04/02 06:15:09;;;;;;;0.70;0.40;;;21.60;75.70;;;;;;5032465;28;20479;-80
2022/04/02 06:17:37;;;;;;;1.08;0.45;;;21.40;75.90;;;;;;5032765;28;20377;-85
2022/04/02 06:20:05;;;;;;;0.65;0.40;;;21.30;77.10;;;;;;5032405;28;20405;-84
2022/04/02 06:22:33;;;;;;;1.13;0.80;;;21.30;77.10;;;;;;5032482;28;20860;-87
2022/04/02 06:25:00;;;;;;;2.03;0.75;;;21.60;78.00;;;;;;5032666;28;20392;-83
2022/04/02 06:27:27;;;;;;;1.40;0.68;;;21.80;77.00;;;;;;5036135;28;20377;-78
2022/04/02 06:29:55;;;;;;;1.17;0.30;;;21.90;78.20;;;;;;5043484;28;20409;-81
2022/04/02 06:32:23;;;;;;;0.90;0.50;;;22.00;75.60;;;;;;5035669;28;20873;-78
2022/04/02 06:34:50;;;;;;;0.73;0.70;;;22.10;75.80;;;;;;5032138;28;20392;-86
2022/04/02 06:37:17;;;;;;;0.60;0.40;;;22.40;75.30;;;;;;5032138;28;20424;-77
2022/04/02 06:39:44;;;;;;;0.70;0.50;;;22.60;73.90;;;;;;5032144;28;20493;-87
2022/04/02 06:42:12;;;;;;;0.88;0.38;;;22.50;73.50;;;;;;5032448;28;20381;-80
2022/04/02 06:44:39;;;;;;;0.63;0.38;;;22.30;75.00;;;;;;5032371;28;20401;-82
2022/04/02 06:47:06;;;;;;;0.40;0.30;;;22.10;74.70;;;;;;5032367;28;20884;-84
2022/04/02 06:49:33;;;;;;;0.55;0.40;;;22.00;75.50;;;;;;5033531;28;20747;-86
2022/04/02 06:52:00;;;;;;;1.15;0.50;;;21.90;76.20;;;;;;5034862;28;20407;-78
2022/04/02 06:54:27;;;;;;;1.05;0.70;;;22.00;77.10;;;;;;5039742;28;20381;-85
2022/04/02 06:56:55;;;;;;;1.20;1.00;;;22.20;76.10;;;;;;5032057;28;20409;-84
2022/04/02 06:59:22;;;;;;;1.88;0.60;;;22.30;74.40;;;;;;5032300;28;20755;-91
2022/04/02 07:01:50;;;;;;;2.22;0.52;;;22.00;75.50;;;;;;5031970;28;20420;-87
2022/04/02 07:04:17;;;;;;;1.42;1.15;;;22.10;74.90;;;;;;5033638;28;20413;-88
2022/04/02 07:06:45;;;;;;;1.45;0.98;;;21.90;75.90;;;;;;5035985;28;20895;-86
2022/04/02 07:09:14;;;;;;;2.28;1.10;;;21.80;77.30;;;;;;5042657;28;20420;-81
2022/04/02 07:11:44;;;;;;;1.95;0.88;;;21.50;78.50;;;;;;5038296;28;20370;-82
2022/04/02 07:14:11;;;;;;;1.80;0.40;;;20.70;79.20;;;;;;5032631;28;20918;-87
2022/04/02 07:16:39;;;;;;;1.50;0.80;;;21.20;80.70;;;;;;5031353;28;20369;-83
2022/04/02 07:19:07;;;;;;;1.65;0.50;;;21.00;80.90;;;;;;5030943;28;20401;-82
2022/04/02 07:21:35;;;;;;;0.82;0.70;;;21.00;81.80;;;;;;5032257;28;20377;-92
2022/04/02 07:24:03;;;;;;;1.30;0.60;;;21.20;80.70;;;;;;5032245;28;20413;-86
2022/04/02 07:26:33;;;;;;;1.10;0.50;;;21.30;80.30;;;;;;5032074;28;20468;-89
2022/04/02 07:29:00;;;;;;;1.13;0.80;;;21.30;79.40;;;;;;5032209;28;20898;-89
2022/04/02 07:31:27;;;;;;;1.13;0.70;;;21.40;79.70;;;;;;5031768;28;20381;-85
2022/04/02 07:33:55;;;;;;;0.80;0.70;;;21.20;79.10;;;;;;5031676;28;20373;-78
2022/04/02 07:36:46;;;;;;;0.83;0.63;;;21.20;78.50;;;;;;5031137;28;20393;-84
2022/04/02 07:39:22;;;;;;;1.60;0.80;;;20.90;80.30;;;;;;5031901;28;20393;-88
2022/04/02 07:42:11;;;;;;;0.95;0.57;;;20.50;82.40;;;;;;5031496;28;20366;-82
2022/04/02 07:45:08;;;;;;;1.25;0.90;;;20.20;85.00;;;;;;5030816;28;20711;-79
2022/04/02 07:47:42;;;;;;;0.90;0.60;;;19.90;86.60;;;;;;5012564;28;20450;-83
2022/04/02 07:50:14;;;;;;;3.13;1.55;;;19.70;89.70;;;;;;5031465;28;20859;-84
2022/04/02 07:52:45;;;;;;;1.73;1.00;;;19.50;90.20;;;;;;5030785;28;20385;-87
2022/04/02 07:55:13;;;;;;;1.83;0.93;;;19.40;90.90;;;;;;5031678;28;20378;-83
2022/04/02 07:57:45;;;;;;;0.70;0.60;;;19.30;91.40;;;;;;5031637;28;20378;-87
2022/04/02 08:00:14;;;;;;;2.00;0.60;;;19.20;91.50;;;;;;5031347;28;20408;-83
2022/04/02 08:02:46;;;;;;;0.90;0.57;;;19.20;91.90;;;;;;5030811;28;20958;-88
2022/04/02 08:05:21;;;;;;;1.10;0.60;;;19.10;92.00;;;;;;5030741;28;20896;-81
2022/04/02 08:07:49;;;;;;;1.42;0.60;;;19.10;92.70;;;;;;5030499;28;20366;-82
2022/04/02 08:10:23;;;;;;;0.80;0.60;;;19.00;92.90;;;;;;5030818;28;20384;-87
2022/04/02 08:12:50;;;;;;;0.68;0.50;;;18.90;93.40;;;;;;5031188;28;20381;-87
2022/04/02 08:15:20;;;;;;;1.05;0.60;;;18.90;93.90;;;;;;5013047;28;20388;-84
2022/04/02 08:17:54;;;;;;;1.77;0.57;;;18.80;94.30;;;;;;5031034;28;20377;-82
2022/04/02 08:20:27;;;;;;;0.77;0.60;;;18.70;94.50;;;;;;5012948;28;20405;-91
2022/04/02 08:22:56;;;;;;;1.30;0.80;;;18.70;94.90;;;;;;5031069;28;20394;-83
2022/04/02 08:25:23;;;;;;;1.45;0.60;;;18.60;95.30;;;;;;5030882;28;20382;-89
2022/04/02 08:28:09;;;;;;;1.50;0.50;;;18.60;95.30;;;;;;5030495;28;20861;-88
2022/04/02 08:30:47;;;;;;;0.60;0.43;;;18.50;95.80;;;;;;5029944;28;20413;-87
2022/04/02 08:33:17;;;;;;;0.80;0.50;;;18.40;96.30;;;;;;5030280;28;20394;-85
2022/04/02 08:36:03;;;;;;;0.93;0.70;;;18.30;97.00;;;;;;5030596;28;20380;-85
2022/04/02 08:38:56;;;;;;;0.70;0.50;;;18.20;97.50;;;;;;5035112;28;20564;-89
2022/04/02 08:41:49;;;;;;;1.27;0.60;;;18.10;97.80;;;;;;4969967;28;20394;-86
2022/04/02 08:44:37;;;;;;;0.88;0.60;;;18.20;97.90;;;;;;4972281;28;20503;-87
2022/04/02 08:47:45;;;;;;;0.80;0.60;;;18.10;98.40;;;;;;4978337;28;20545;-88
2022/04/02 08:50:17;;;;;;;1.75;1.30;;;18.10;98.50;;;;;;4912755;29;20379;-84
2022/04/02 08:52:55;;;;;;;2.33;2.13;;;18.00;98.80;;;;;;4912396;29;20415;-87
2022/04/02 08:55:41;;;;;;;1.15;0.98;;;18.00;99.00;;;;;;4912087;29;20964;-81
2022/04/02 08:58:31;;;;;;;1.00;1.00;;;17.90;98.80;;;;;;4912316;29;20392;-88
2022/04/02 09:01:06;;;;;;;1.10;0.93;;;18.00;98.90;;;;;;4907031;29;20419;-80
2022/04/02 09:04:03;;;;;;;2.92;1.52;;;17.90;98.90;;;;;;4912786;29;20394;-86
2022/04/02 09:07:14;;;;;;;2.38;1.70;;;18.00;98.90;;;;;;4912480;29;20872;-80
2022/04/02 09:10:02;;;;;;;2.10;1.10;;;17.90;98.90;;;;;;4874715;29;20383;-87
2022/04/02 09:12:51;;;;;;;2.03;1.03;;;17.90;99.50;;;;;;4875402;29;20451;-89
2022/04/02 09:15:46;;;;;;;1.33;1.10;;;17.70;99.60;;;;;;4875428;29;20403;-86
2022/04/02 09:18:40;;;;;;;1.10;0.90;;;17.80;99.90;;;;;;4876407;29;20399;-87
2022/04/02 09:21:16;;;;;;;1.48;0.85;;;17.60;99.90;;;;;;4877245;29;20660;-82
2022/04/02 09:24:12;;;;;;;2.00;0.80;;;17.60;99.90;;;;;;4880968;29;20379;-88
2022/04/02 09:26:54;;;;;;;0.50;0.50;;;17.50;99.90;;;;;;4939907;28;20394;-85
2022/04/02 09:29:50;;;;;;;0.60;0.40;;;17.40;99.90;;;;;;4974101;28;20391;-81
2022/04/02 09:33:04;;;;;;;0.50;0.50;;;17.40;99.90;;;;;;4975135;28;20404;-84
2022/04/02 09:35:55;;;;;;;0.82;0.47;;;17.30;99.90;;;;;;4982317;28;20406;-81
2022/04/02 09:38:58;;;;;;;0.85;0.60;;;17.20;99.90;;;;;;4984193;28;20389;-83
2022/04/02 09:41:32;;;;;;;1.70;0.60;;;17.10;99.90;;;;;;4969132;28;20919;-81
2022/04/02 09:44:20;;;;;;;0.68;0.57;;;17.00;99.90;;;;;;4980822;28;20438;-80
2022/04/02 09:47:13;;;;;;;2.10;0.90;;;17.00;99.90;;;;;;5020213;28;20377;-86
2022/04/02 09:50:09;;;;;;;1.10;0.50;;;16.90;99.90;;;;;;5032038;28;20418;-85
2022/04/02 09:52:54;;;;;;;1.70;0.40;;;16.80;99.90;;;;;;5029572;28;20377;-81
2022/04/02 09:55:38;;;;;;;0.88;0.40;;;16.70;99.90;;;;;;5029261;28;20372;-88
2022/04/02 09:58:30;;;;;;;0.70;0.50;;;16.60;99.90;;;;;;5011735;28;20403;-88
2022/04/02 10:01:11;;;;;;;2.40;0.70;;;16.60;99.90;;;;;;5029837;28;20413;-87
2022/04/02 10:03:57;;;;;;;2.80;0.80;;;16.50;99.90;;;;;;5029463;28;20378;-88
2022/04/02 10:06:36;;;;;;;0.75;0.65;;;16.50;99.90;;;;;;5029894;28;20362;-84
2022/04/02 10:09:20;;;;;;;1.45;0.50;;;16.40;99.90;;;;;;5030433;28;20381;-79
2022/04/02 10:11:54;;;;;;;2.10;0.50;;;16.40;99.90;;;;;;5029879;28;20416;-87
2022/04/02 10:14:23;;;;;;;1.23;0.60;;;16.40;99.90;;;;;;5030026;28;20473;-88
2022/04/02 10:16:58;;;;;;;1.02;0.70;;;16.30;99.90;;;;;;5029181;28;20409;-80
2022/04/02 10:19:34;;;;;;;0.98;0.65;;;16.30;99.90;;;;;;5029439;28;20482;-90
2022/04/02 10:22:06;;;;;;;0.50;0.40;;;16.20;99.90;;;;;;5029381;28;20969;-87
2022/04/02 10:24:47;;;;;;;0.50;0.50;;;16.10;99.90;;;;;;5029094;28;20477;-87
2022/04/02 10:27:30;;;;;;;0.98;0.60;;;16.00;99.90;;;;;;5029429;28;20847;-84
2022/04/02 10:30:14;;;;;;;0.80;0.60;;;16.00;99.90;;;;;;5029109;28;20401;-89
2022/04/02 10:35:46;;;;;;;1.25;0.75;;;15.90;99.90;;;;;;4930294;29;20386;-83
2022/04/02 10:38:36;;;;;;;0.80;0.70;;;15.80;99.90;;;;;;4932003;29;20385;-86
2022/04/02 10:41:09;;;;;;;1.13;0.80;;;15.80;99.90;;;;;;4936416;29;20390;-84
2022/04/02 10:43:46;;;;;;;1.48;0.60;;;15.70;99.90;;;;;;4932639;29;20481;-80
2022/04/02 10:46:16;;;;;;;0.70;0.60;;;15.60;99.90;;;;;;4929897;29;20474;-88
2022/04/02 10:49:07;;;;;;;1.20;0.70;;;15.60;99.90;;;;;;4929448;29;20465;-90
2022/04/02 10:51:40;;;;;;;1.37;0.90;;;15.50;99.90;;;;;;4930096;29;20403;-87
2022/04/02 10:54:12;;;;;;;2.20;0.90;;;15.50;99.90;;;;;;4929899;29;20409;-86
2022/04/02 10:56:42;;;;;;;1.70;1.00;;;15.40;99.90;;;;;;4932977;29;20394;-82
2022/04/02 10:59:10;;;;;;;1.45;1.10;;;15.40;99.90;;;;;;4933004;29;20398;-88
2022/04/02 11:01:44;;;;;;;2.40;1.20;;;15.40;99.90;;;;;;4917375;29;20897;-83
2022/04/02 11:04:43;;;;;;;1.55;1.00;;;15.40;99.90;;;;;;4916867;29;20388;-81
2022/04/02 11:07:10;;;;;;;2.53;1.03;;;15.30;99.90;;;;;;4933215;29;20388;-90
2022/04/02 11:09:39;;;;;;;1.40;1.20;;;15.30;99.90;;;;;;4932732;29;20381;-86
2022/04/02 11:12:14;;;;;;;2.17;1.30;;;15.30;99.90;;;;;;4953586;28;20385;-80
2022/04/02 11:14:46;;;;;;;2.30;1.40;;;15.30;99.90;;;;;;5031782;28;20450;-81
2022/04/02 11:17:33;;;;;;;2.17;1.30;;;15.20;99.90;;;;;;5031614;28;20942;-85
2022/04/02 11:20:07;;;;;;;1.70;1.40;;;15.20;99.90;;;;;;5031677;28;20401;-86
2022/04/02 11:23:17;;;;;;;1.53;1.23;;;15.20;99.90;;;;;;5031572;28;20896;-88
2022/04/02 11:25:49;;;;;;;2.10;1.15;;;15.10;99.90;;;;;;5031637;28;20370;-86
2022/04/02 11:28:36;;;;;;;1.65;1.20;;;15.10;99.90;;;;;;5047739;28;20476;-81
2022/04/02 11:31:05;;;;;;;2.78;1.30;;;15.00;99.90;;;;;;5031352;28;20403;-82
2022/04/02 11:33:52;;;;;;;1.80;1.20;;;14.90;99.90;;;;;;5031253;28;20745;-86
2022/04/02 11:36:36;;;;;;;1.42;1.20;;;14.90;99.90;;;;;;5013492;28;20393;-87
2022/04/02 11:39:10;;;;;;;2.22;1.10;;;14.90;99.90;;;;;;5031230;28;20396;-87
2022/04/02 11:41:43;;;;;;;1.73;1.00;;;14.90;99.90;;;;;;5031193;28;20849;-81
2022/04/02 11:44:16;;;;;;;1.55;1.00;;;14.80;99.90;;;;;;5030898;28;20397;-83
2022/04/02 11:47:00;;;;;;;1.70;0.80;;;14.80;99.90;;;;;;5031066;28;20440;-86
2022/04/02 11:49:32;;;;;;;2.77;1.40;;;15.00;99.90;;;;;;5031106;28;20354;-87
2022/04/02 11:52:10;;;;;;;3.42;1.70;;;15.00;99.90;;;;;;5031485;28;20377;-89
2022/04/02 11:55:00;;;;;;;2.55;1.60;;;15.10;99.90;;;;;;5032061;28;20377;-85
2022/04/02 11:57:30;;;;;;;5.15;1.60;;;15.00;99.90;;;;;;5030684;28;20373;-88
2022/04/02 12:00:01;;;;;;;2.25;1.30;;;15.00;99.90;;;;;;5013383;28;20397;-89
2022/04/02 12:02:44;;;;;;;3.72;1.50;;;15.00;99.90;;;;;;5013054;28;20881;-81
2022/04/02 12:05:13;;;;;;;2.47;1.80;;;15.00;99.90;;;;;;5030538;28;20892;-87
2022/04/02 12:07:45;;;;;;;1.80;1.20;;;15.00;99.90;;;;;;5030490;28;20854;-83
2022/04/02 12:10:23;;;;;;;1.40;0.80;;;15.00;99.90;;;;;;5030755;28;20785;-88
2022/04/02 12:12:53;;;;;;;1.65;0.90;;;14.90;99.90;;;;;;5030699;28;20370;-85
2022/04/02 12:15:21;;;;;;;1.20;1.00;;;14.90;99.90;;;;;;5030588;28;20378;-86
2022/04/02 12:18:06;;;;;;;1.03;0.90;;;14.90;99.90;;;;;;5030440;28;20407;-82
2022/04/02 12:20:37;;;;;;;1.17;0.93;;;14.80;99.90;;;;;;5012460;28;20410;-85
2022/04/02 12:23:12;;;;;;;1.17;1.00;;;14.70;99.90;;;;;;5030237;28;20419;-85
2022/04/02 12:25:41;;;;;;;1.40;1.00;;;14.70;99.90;;;;;;5030408;28;20440;-87
2022/04/02 12:28:19;;;;;;;2.03;0.90;;;14.60;99.90;;;;;;5030179;28;20376;-86
2022/04/02 12:30:52;;;;;;;1.80;1.10;;;14.60;99.90;;;;;;5031101;28;20447;-86
2022/04/02 12:33:26;;;;;;;4.30;1.40;;;14.60;99.90;;;;;;5032079;28;20374;-86
2022/04/02 12:35:56;;;;;;;3.03;1.88;;;14.50;99.90;;;;;;5037388;28;20406;-86
2022/04/02 12:38:28;;;;;;;2.90;2.00;;;14.50;99.90;;;;;;5030156;28;20401;-84
2022/04/02 12:40:57;;;;;;;2.55;1.77;;;14.50;99.90;;;;;;5030203;28;20733;-89
2022/04/02 12:43:30;;;;;;;3.08;1.98;;;14.50;99.90;;;;;;5029549;28;20815;-85
2022/04/02 12:45:58;;;;;;;1.65;1.52;;;14.50;99.90;;;;;;5029945;28;20388;-82
2022/04/02 12:48:26;;;;;;;2.15;1.50;;;14.50;99.90;;;;;;5012204;28;20380;-87
2022/04/02 12:51:01;;;;;;;2.58;1.40;;;14.50;99.90;;;;;;5029493;28;20369;-86
2022/04/02 12:53:34;;;;;;;2.08;1.45;;;14.50;99.90;;;;;;5045053;28;20378;-85
2022/04/02 12:56:05;;;;;;;3.15;2.70;;;14.40;99.90;;;;;;5030383;28;20381;-84
2022/04/02 12:58:36;;;;;;;5.53;4.30;;;14.40;99.90;;;;;;5030717;28;20397;-87
2022/04/02 13:01:17;;;;;;;4.60;4.20;;;14.50;99.90;;;;;;5031378;28;20413;-83
2022/04/02 13:04:08;;;;;;;3.25;2.67;;;14.60;99.90;;;;;;5035684;28;20382;-84
2022/04/02 13:06:57;;;;;;;3.53;3.22;;;14.50;99.90;;;;;;4972506;28;20892;-81
2022/04/02 13:09:35;;;;;;;5.50;2.47;;;14.50;99.90;;;;;;4969640;28;20382;-83
2022/04/02 13:12:03;;;;;;;2.90;2.20;;;14.40;99.90;;;;;;4969005;28;20464;-86
2022/04/02 13:14:45;;;;;;;3.05;2.30;;;14.30;99.90;;;;;;4968566;28;20423;-88